createdAt,value
2022-12-01T00:00:10.331Z,85.27
2022-12-01T00:01:08.608Z,85.03
2022-12-01T00:01:55.068Z,84.92
2022-12-01T00:02:41.677Z,85.14
2022-12-01T00:03:31.844Z,84.86
2022-12-01T00:04:18.488Z,84.91
2022-12-01T00:05:05.257Z,85.12
2022-12-01T00:06:04.402Z,85.22
2022-12-01T00:06:50.852Z,85.26
2022-12-01T00:07:37.387Z,85.35
2022-12-01T00:08:23.971Z,85.14
2022-12-01T00:09:29.004Z,85.25
2022-12-01T00:10:27.559Z,85.07
2022-12-01T00:11:14.163Z,84.67
2022-12-01T00:12:00.740Z,84.38
2022-12-01T00:12:47.164Z,84.65
2022-12-01T00:13:34.993Z,84.79
2022-12-01T00:14:21.433Z,84.98
2022-12-01T00:15:08.109Z,84.94
2022-12-01T00:15:54.573Z,84.76
2022-12-01T00:16:41.141Z,84.76
2022-12-01T00:17:29.505Z,85.14
2022-12-01T00:18:17.144Z,84.90
2022-12-01T00:19:03.850Z,84.59
2022-12-01T00:19:50.773Z,84.93
2022-12-01T00:20:37.895Z,84.85
2022-12-01T00:21:27.225Z,85.02
2022-12-01T00:22:13.885Z,84.88
2022-12-01T00:23:00.680Z,85.02
2022-12-01T00:23:49.906Z,85.12
2022-12-01T00:24:36.370Z,85.04
2022-12-01T00:25:22.920Z,85.12
2022-12-01T00:26:09.714Z,85.11
2022-12-01T00:26:56.432Z,85.20
2022-12-01T00:27:43.192Z,84.98
2022-12-01T00:28:29.632Z,85.35
2022-12-01T00:29:16.294Z,85.29
2022-12-01T00:30:03.904Z,84.90
2022-12-01T00:30:56.832Z,85.01
2022-12-01T00:31:43.411Z,85.14
2022-12-01T00:32:30.951Z,85.18
2022-12-01T00:33:17.623Z,84.87
2022-12-01T00:34:08.271Z,84.95
2022-12-01T00:34:57.962Z,84.97
2022-12-01T00:35:44.450Z,84.97
2022-12-01T00:36:30.869Z,84.89
2022-12-01T00:37:17.472Z,84.91
2022-12-01T00:38:03.967Z,84.91
2022-12-01T00:38:55.560Z,85.09
2022-12-01T00:39:42.022Z,85.15
2022-12-01T00:40:28.506Z,85.16
2022-12-01T00:41:15.032Z,85.31
2022-12-01T00:42:01.642Z,85.27
2022-12-01T00:42:48.157Z,85.39
2022-12-01T00:43:34.748Z,85.24
2022-12-01T00:44:21.430Z,85.45
2022-12-01T00:45:08.807Z,85.25
2022-12-01T00:45:56.435Z,85.43
2022-12-01T00:46:43.043Z,85.45
2022-12-01T00:47:29.529Z,85.36
2022-12-01T00:48:16.146Z,85.46
2022-12-01T00:49:02.747Z,85.38
2022-12-01T00:49:49.598Z,85.60
2022-12-01T00:50:36.453Z,85.81
2022-12-01T00:51:23.060Z,85.35
2022-12-01T00:52:09.605Z,85.54
2022-12-01T00:52:56.302Z,85.45
2022-12-01T00:53:42.848Z,85.38
2022-12-01T00:54:32.034Z,85.48
2022-12-01T00:55:19.274Z,85.79
2022-12-01T00:56:06.126Z,85.62
2022-12-01T00:56:53.046Z,85.82
2022-12-01T00:57:39.524Z,85.84
2022-12-01T00:58:28.403Z,85.66
2022-12-01T00:59:14.918Z,85.60
2022-12-01T01:00:01.646Z,85.80
2022-12-01T01:00:48.366Z,85.44
2022-12-01T01:01:35.087Z,85.28
2022-12-01T01:02:21.689Z,85.69
2022-12-01T01:03:08.657Z,85.67
2022-12-01T01:03:55.623Z,85.86
2022-12-01T01:04:42.311Z,85.64
2022-12-01T01:05:28.737Z,85.77
2022-12-01T01:06:15.339Z,85.65
2022-12-01T01:07:03.052Z,85.88
2022-12-01T01:07:49.630Z,85.68
2022-12-01T01:08:37.074Z,85.92
2022-12-01T01:09:23.715Z,85.65
2022-12-01T01:10:11.044Z,85.64
2022-12-01T01:11:00.504Z,85.25
2022-12-01T01:11:47.307Z,85.10
2022-12-01T01:12:33.888Z,85.65
2022-12-01T01:13:20.603Z,85.47
2022-12-01T01:14:08.551Z,85.86
2022-12-01T01:14:55.206Z,85.83
2022-12-01T01:15:42.106Z,85.92
2022-12-01T01:16:29.428Z,85.89
2022-12-01T01:17:15.995Z,85.65
2022-12-01T01:18:02.631Z,86.00
2022-12-01T01:18:49.822Z,86.07
2022-12-01T01:19:36.284Z,85.60
2022-12-01T01:20:22.961Z,85.59
2022-12-01T01:21:14.116Z,85.53
2022-12-01T01:22:00.575Z,85.47
2022-12-01T01:22:47.124Z,85.61
2022-12-01T01:23:34.166Z,85.76
2022-12-01T01:24:20.686Z,86.04
2022-12-01T01:25:07.551Z,85.86
2022-12-01T01:25:54.203Z,86.25
2022-12-01T01:26:40.666Z,86.07
2022-12-01T01:27:27.347Z,86.16
2022-12-01T01:28:13.976Z,86.10
2022-12-01T01:29:03.016Z,85.97
2022-12-01T01:29:49.675Z,86.14
2022-12-01T01:30:39.731Z,86.08
2022-12-01T01:31:28.909Z,86.15
2022-12-01T01:32:15.518Z,86.12
2022-12-01T01:33:02.036Z,86.25
2022-12-01T01:33:49.224Z,86.17
2022-12-01T01:34:35.953Z,86.31
2022-12-01T01:35:22.483Z,86.22
2022-12-01T01:36:10.009Z,86.19
2022-12-01T01:36:56.428Z,86.11
2022-12-01T01:37:43.105Z,86.14
2022-12-01T01:38:30.314Z,86.23
2022-12-01T01:39:16.859Z,86.22
2022-12-01T01:40:03.787Z,86.19
2022-12-01T01:40:50.201Z,86.07
2022-12-01T01:41:37.022Z,85.84
2022-12-01T01:42:23.500Z,85.96
2022-12-01T01:43:37.524Z,85.72
2022-12-01T01:44:54.872Z,85.92
2022-12-01T01:45:41.755Z,85.98
2022-12-01T01:46:34.376Z,85.82
2022-12-01T01:47:33.003Z,85.84
2022-12-01T01:48:19.534Z,85.62
2022-12-01T01:49:10.266Z,85.76
2022-12-01T01:50:05.853Z,85.65
2022-12-01T01:50:52.765Z,85.49
2022-12-01T01:51:43.463Z,85.59
2022-12-01T01:52:30.015Z,85.79
2022-12-01T01:53:16.611Z,86.01
2022-12-01T01:54:09.476Z,85.94
2022-12-01T01:54:56.282Z,86.03
2022-12-01T01:55:43.072Z,85.92
2022-12-01T01:56:30.730Z,86.16
2022-12-01T01:57:26.433Z,86.13
2022-12-01T01:58:13.439Z,85.98
2022-12-01T01:59:00.520Z,85.76
2022-12-01T01:59:54.379Z,85.68
2022-12-01T02:00:44.648Z,85.86
2022-12-01T02:01:31.589Z,85.98
2022-12-01T02:02:18.419Z,85.82
2022-12-01T02:03:05.118Z,85.81
2022-12-01T02:03:54.631Z,85.81
2022-12-01T02:04:46.532Z,85.85
2022-12-01T02:05:36.985Z,85.58
2022-12-01T02:06:24.524Z,85.76
2022-12-01T02:07:16.172Z,85.68
2022-12-01T02:08:04.309Z,85.58
2022-12-01T02:08:50.982Z,85.62
2022-12-01T02:09:37.571Z,85.29
2022-12-01T02:10:44.041Z,85.53
2022-12-01T02:11:48.372Z,85.70
2022-12-01T02:12:41.133Z,85.83
2022-12-01T02:13:33.564Z,85.84
2022-12-01T02:14:31.949Z,85.82
2022-12-01T02:15:56.839Z,85.99
2022-12-01T02:16:54.430Z,85.95
2022-12-01T02:17:43.945Z,86.12
2022-12-01T02:18:52.191Z,85.88
2022-12-01T02:20:09.432Z,85.71
2022-12-01T02:21:25.772Z,85.62
2022-12-01T02:22:48.187Z,85.15
2022-12-01T02:24:09.504Z,85.50
2022-12-01T02:25:19.405Z,85.30
2022-12-01T02:26:30.999Z,85.48
2022-12-01T02:27:20.542Z,85.33
2022-12-01T02:28:20.339Z,85.55
2022-12-01T02:29:24.965Z,85.18
2022-12-01T02:30:19.138Z,85.29
2022-12-01T02:31:23.811Z,85.24
2022-12-01T02:32:39.513Z,85.68
2022-12-01T02:33:31.673Z,85.64
2022-12-01T02:34:44.047Z,85.89
2022-12-01T02:35:58.596Z,85.55
2022-12-01T02:36:48.186Z,85.97
2022-12-01T02:38:18.059Z,86.01
2022-12-01T02:39:41.768Z,85.43
2022-12-01T02:40:36.273Z,85.92
2022-12-01T02:41:51.248Z,85.75
2022-12-01T02:42:53.619Z,85.96
2022-12-01T02:44:02.329Z,85.62
2022-12-01T02:44:49.156Z,85.20
2022-12-01T02:46:16.963Z,85.17
2022-12-01T02:47:15.055Z,85.09
2022-12-01T02:48:08.831Z,85.27
2022-12-01T02:49:02.073Z,85.46
2022-12-01T02:49:53.459Z,85.78
2022-12-01T02:50:41.190Z,85.44
2022-12-01T02:51:32.608Z,85.25
2022-12-01T02:52:23.878Z,85.29
2022-12-01T02:53:15.592Z,85.49
2022-12-01T02:54:05.457Z,85.27
2022-12-01T02:54:53.210Z,85.29
2022-12-01T02:55:48.625Z,85.21
2022-12-01T02:56:35.069Z,85.25
2022-12-01T02:57:23.331Z,85.14
2022-12-01T02:58:14.742Z,85.35
2022-12-01T02:59:02.247Z,85.39
2022-12-01T02:59:54.891Z,85.44
2022-12-01T03:01:07.823Z,85.25
2022-12-01T03:02:12.021Z,85.47
2022-12-01T03:03:32.049Z,85.16
2022-12-01T03:04:46.908Z,85.36
2022-12-01T03:05:51.517Z,85.51
2022-12-01T03:07:02.352Z,85.09
2022-12-01T03:08:33.724Z,84.90
2022-12-01T03:09:41.712Z,84.76
2022-12-01T03:10:56.159Z,84.82
2022-12-01T03:12:13.573Z,84.60
2022-12-01T03:13:18.493Z,84.25
2022-12-01T03:14:33.308Z,83.78
2022-12-01T03:15:55.478Z,84.01
2022-12-01T03:16:53.300Z,84.13
2022-12-01T03:18:05.316Z,84.50
2022-12-01T03:19:03.726Z,83.80
2022-12-01T03:19:59.527Z,84.12
2022-12-01T03:21:15.019Z,84.53
2022-12-01T03:22:10.327Z,83.74
2022-12-01T03:23:09.731Z,83.46
2022-12-01T03:24:18.063Z,83.90
2022-12-01T03:25:08.064Z,83.83
2022-12-01T03:25:59.065Z,84.00
2022-12-01T03:26:51.684Z,84.00
2022-12-01T03:28:00.692Z,83.87
2022-12-01T03:28:58.777Z,83.77
2022-12-01T03:29:51.718Z,84.03
2022-12-01T03:30:43.212Z,84.21
2022-12-01T03:31:40.918Z,84.37
2022-12-01T03:32:38.461Z,84.00
2022-12-01T03:33:36.117Z,83.96
2022-12-01T03:34:35.226Z,83.60
2022-12-01T03:35:33.747Z,83.30
2022-12-01T03:36:35.794Z,83.38
2022-12-01T03:37:32.201Z,83.38
2022-12-01T03:38:26.391Z,84.02
2022-12-01T03:39:20.185Z,84.11
2022-12-01T03:40:12.249Z,83.69
2022-12-01T03:41:23.730Z,83.45
2022-12-01T03:42:27.198Z,83.67
2022-12-01T03:43:24.169Z,84.06
2022-12-01T03:44:20.369Z,84.13
2022-12-01T03:45:19.561Z,84.19
2022-12-01T03:46:12.060Z,84.28
2022-12-01T03:47:08.689Z,84.06
2022-12-01T03:47:55.453Z,83.79
2022-12-01T03:48:42.593Z,83.97
2022-12-01T03:49:30.370Z,83.71
2022-12-01T03:50:18.766Z,83.79
2022-12-01T03:51:24.135Z,83.62
2022-12-01T03:52:19.638Z,83.75
2022-12-01T03:53:19.085Z,83.85
2022-12-01T03:54:16.202Z,84.33
2022-12-01T03:55:14.210Z,83.96
2022-12-01T03:56:05.806Z,83.84
2022-12-01T03:57:00.393Z,83.81
2022-12-01T03:57:53.537Z,84.29
2022-12-01T03:58:46.139Z,84.01
2022-12-01T03:59:38.337Z,83.96
2022-12-01T04:00:25.424Z,84.00
2022-12-01T04:01:13.280Z,83.68
2022-12-01T04:02:00.016Z,83.18
2022-12-01T04:02:47.084Z,83.52
2022-12-01T04:03:34.082Z,83.63
2022-12-01T04:04:20.582Z,83.50
2022-12-01T04:05:09.220Z,83.77
2022-12-01T04:05:55.844Z,84.16
2022-12-01T04:06:48.449Z,84.25
2022-12-01T04:07:36.351Z,84.29
2022-12-01T04:08:22.885Z,84.52
2022-12-01T04:09:09.418Z,84.22
2022-12-01T04:09:56.064Z,84.00
2022-12-01T04:10:44.118Z,83.91
2022-12-01T04:11:49.482Z,83.91
2022-12-01T04:12:36.020Z,83.76
2022-12-01T04:13:23.245Z,84.13
2022-12-01T04:14:09.687Z,84.58
2022-12-01T04:15:02.681Z,84.34
2022-12-01T04:15:50.949Z,84.42
2022-12-01T04:16:37.567Z,83.83
2022-12-01T04:17:25.285Z,83.58
2022-12-01T04:18:11.890Z,83.65
2022-12-01T04:18:58.394Z,83.53
2022-12-01T04:19:44.877Z,83.45
2022-12-01T04:20:31.508Z,83.63
2022-12-01T04:21:18.204Z,83.62
2022-12-01T04:22:04.760Z,83.99
2022-12-01T04:22:51.441Z,84.10
2022-12-01T04:24:04.384Z,84.18
2022-12-01T04:24:51.305Z,84.25
2022-12-01T04:25:37.843Z,83.74
2022-12-01T04:26:24.315Z,84.03
2022-12-01T04:27:11.009Z,83.76
2022-12-01T04:27:57.445Z,84.00
2022-12-01T04:28:43.961Z,84.06
2022-12-01T04:29:30.519Z,84.11
2022-12-01T04:30:17.287Z,83.88
2022-12-01T04:31:04.046Z,83.58
2022-12-01T04:31:51.029Z,83.72
2022-12-01T04:32:42.565Z,83.74
2022-12-01T04:33:29.656Z,84.07
2022-12-01T04:34:16.412Z,83.73
2022-12-01T04:35:03.142Z,83.68
2022-12-01T04:36:09.979Z,84.18
2022-12-01T04:36:56.638Z,84.06
2022-12-01T04:37:43.496Z,84.18
2022-12-01T04:38:31.147Z,83.91
2022-12-01T04:39:18.414Z,83.51
2022-12-01T04:40:06.132Z,83.50
2022-12-01T04:40:52.923Z,83.04
2022-12-01T04:41:39.639Z,82.98
2022-12-01T04:42:26.493Z,83.27
2022-12-01T04:43:13.222Z,83.44
2022-12-01T04:44:00.107Z,83.20
2022-12-01T04:44:46.906Z,83.51
2022-12-01T04:45:33.629Z,83.38
2022-12-01T04:46:21.072Z,83.17
2022-12-01T04:47:08.336Z,83.50
2022-12-01T04:47:55.135Z,83.58
2022-12-01T04:48:41.826Z,83.63
2022-12-01T04:49:28.578Z,83.83
2022-12-01T04:50:15.550Z,83.76
2022-12-01T04:51:03.982Z,83.88
2022-12-01T04:51:50.841Z,83.68
2022-12-01T04:52:37.732Z,83.73
2022-12-01T04:53:27.258Z,83.43
2022-12-01T04:54:14.416Z,83.25
2022-12-01T04:55:01.232Z,83.00
2022-12-01T04:55:52.725Z,83.08
2022-12-01T04:56:45.745Z,82.99
2022-12-01T04:57:32.434Z,83.21
2022-12-01T04:58:21.794Z,82.87
2022-12-01T04:59:08.499Z,83.24
2022-12-01T04:59:55.160Z,83.33
2022-12-01T05:00:41.841Z,83.55
2022-12-01T05:01:28.656Z,83.95
2022-12-01T05:02:15.327Z,84.08
2022-12-01T05:03:01.989Z,84.03
2022-12-01T05:03:51.541Z,84.34
2022-12-01T05:04:41.343Z,83.90
2022-12-01T05:05:31.063Z,83.67
2022-12-01T05:06:23.925Z,82.89
2022-12-01T05:07:10.518Z,82.61
2022-12-01T05:07:59.024Z,82.63
2022-12-01T05:08:46.133Z,82.66
2022-12-01T05:09:32.824Z,82.39
2022-12-01T05:10:19.445Z,82.66
2022-12-01T05:11:11.640Z,83.02
2022-12-01T05:11:58.105Z,82.86
2022-12-01T05:12:48.615Z,82.71
2022-12-01T05:13:40.102Z,83.50
2022-12-01T05:14:26.631Z,83.07
2022-12-01T05:15:13.807Z,82.83
2022-12-01T05:16:08.967Z,82.54
2022-12-01T05:16:57.960Z,82.54
2022-12-01T05:17:44.558Z,82.94
2022-12-01T05:18:31.400Z,83.10
2022-12-01T05:19:37.027Z,83.23
2022-12-01T05:20:44.760Z,82.96
2022-12-01T05:21:31.262Z,83.03
2022-12-01T05:22:26.926Z,82.79
2022-12-01T05:23:30.474Z,82.89
2022-12-01T05:24:19.145Z,82.54
2022-12-01T05:25:05.933Z,83.13
2022-12-01T05:25:53.658Z,82.90
2022-12-01T05:26:44.101Z,82.93
2022-12-01T05:27:33.161Z,82.86
2022-12-01T05:28:20.474Z,83.15
2022-12-01T05:29:08.170Z,83.37
2022-12-01T05:30:13.539Z,83.46
2022-12-01T05:31:00.409Z,83.54
2022-12-01T05:31:51.900Z,82.70
2022-12-01T05:32:38.825Z,82.93
2022-12-01T05:33:27.728Z,82.75
2022-12-01T05:34:14.630Z,82.79
2022-12-01T05:35:02.100Z,82.95
2022-12-01T05:35:49.934Z,83.09
2022-12-01T05:36:47.687Z,82.67
2022-12-01T05:37:34.735Z,82.88
2022-12-01T05:38:21.972Z,82.72
2022-12-01T05:39:08.866Z,82.34
2022-12-01T05:39:55.334Z,82.45
2022-12-01T05:40:41.861Z,82.80
2022-12-01T05:41:28.554Z,82.73
2022-12-01T05:42:15.126Z,82.80
2022-12-01T05:43:01.786Z,82.49
2022-12-01T05:43:48.449Z,82.58
2022-12-01T05:44:34.938Z,82.80
2022-12-01T05:45:21.700Z,82.94
2022-12-01T05:46:08.373Z,83.04
2022-12-01T05:46:55.019Z,82.92
2022-12-01T05:47:41.517Z,83.06
2022-12-01T05:48:28.243Z,82.71
2022-12-01T05:49:14.846Z,82.84
2022-12-01T05:50:05.502Z,83.14
2022-12-01T05:50:52.482Z,82.87
2022-12-01T05:51:39.192Z,82.36
2022-12-01T05:52:25.643Z,81.79
2022-12-01T05:53:13.973Z,82.16
2022-12-01T05:54:00.757Z,82.12
2022-12-01T05:54:47.230Z,82.04
2022-12-01T05:55:34.709Z,82.25
2022-12-01T05:56:21.743Z,82.33
2022-12-01T05:57:08.391Z,82.67
2022-12-01T05:57:56.114Z,82.12
2022-12-01T05:58:42.668Z,82.08
2022-12-01T05:59:29.202Z,82.30
2022-12-01T06:00:16.951Z,81.98
2022-12-01T06:01:03.961Z,82.05
2022-12-01T06:01:52.937Z,81.97
2022-12-01T06:02:41.259Z,82.20
2022-12-01T06:03:27.865Z,81.99
2022-12-01T06:04:15.107Z,81.96
2022-12-01T06:05:01.663Z,82.12
2022-12-01T06:05:48.194Z,81.99
2022-12-01T06:06:34.682Z,81.92
2022-12-01T06:07:23.390Z,82.02
2022-12-01T06:08:09.956Z,82.17
2022-12-01T06:08:56.432Z,82.18
2022-12-01T06:09:43.198Z,82.25
2022-12-01T06:10:29.934Z,81.16
2022-12-01T06:11:24.939Z,81.16
2022-12-01T06:12:11.717Z,81.32
2022-12-01T06:12:58.549Z,81.56
2022-12-01T06:13:47.471Z,80.85
2022-12-01T06:14:34.095Z,80.85
2022-12-01T06:15:20.769Z,81.43
2022-12-01T06:16:07.759Z,81.72
2022-12-01T06:16:54.269Z,81.29
2022-12-01T06:17:41.182Z,81.18
2022-12-01T06:18:31.659Z,81.28
2022-12-01T06:19:18.161Z,81.17
2022-12-01T06:20:05.491Z,81.40
2022-12-01T06:20:52.003Z,81.24
2022-12-01T06:21:38.731Z,81.67
2022-12-01T06:22:25.699Z,81.54
2022-12-01T06:23:12.154Z,81.60
2022-12-01T06:23:58.736Z,81.27
2022-12-01T06:24:45.349Z,81.27
2022-12-01T06:25:31.981Z,81.17
2022-12-01T06:26:18.586Z,81.20
2022-12-01T06:27:05.480Z,81.06
2022-12-01T06:27:57.272Z,81.29
2022-12-01T06:28:43.768Z,81.45
2022-12-01T06:29:30.388Z,81.28
2022-12-01T06:30:17.179Z,81.19
2022-12-01T06:31:03.970Z,81.59
2022-12-01T06:31:50.688Z,81.70
2022-12-01T06:32:37.270Z,81.89
2022-12-01T06:33:23.735Z,81.71
2022-12-01T06:34:10.755Z,81.51
2022-12-01T06:34:57.322Z,81.82
2022-12-01T06:35:43.764Z,81.78
2022-12-01T06:36:30.420Z,81.81
2022-12-01T06:37:17.341Z,82.00
2022-12-01T06:38:04.171Z,81.99
2022-12-01T06:38:50.833Z,81.87
2022-12-01T06:39:37.794Z,81.84
2022-12-01T06:40:24.626Z,82.11
2022-12-01T06:41:11.126Z,81.76
2022-12-01T06:41:57.572Z,81.66
2022-12-01T06:42:44.076Z,81.63
2022-12-01T06:43:30.544Z,81.88
2022-12-01T06:44:17.074Z,81.99
2022-12-01T06:45:03.979Z,81.93
2022-12-01T06:45:50.874Z,81.95
2022-12-01T06:46:38.394Z,82.10
2022-12-01T06:47:31.067Z,82.15
2022-12-01T06:48:17.799Z,82.25
2022-12-01T06:49:07.059Z,82.14
2022-12-01T06:49:53.638Z,82.15
2022-12-01T06:50:40.571Z,81.58
2022-12-01T06:51:27.346Z,81.94
2022-12-01T06:52:14.092Z,82.02
2022-12-01T06:53:01.274Z,81.79
2022-12-01T06:53:50.031Z,81.78
2022-12-01T06:54:37.591Z,81.22
2022-12-01T06:55:25.409Z,81.27
2022-12-01T06:56:12.649Z,81.49
2022-12-01T06:56:59.605Z,81.76
2022-12-01T06:57:46.492Z,81.63
2022-12-01T06:58:34.586Z,81.53
2022-12-01T06:59:21.654Z,81.58
2022-12-01T07:00:09.470Z,81.52
2022-12-01T07:00:59.812Z,81.57
2022-12-01T07:01:46.658Z,81.58
2022-12-01T07:02:33.398Z,81.57
2022-12-01T07:03:19.932Z,81.86
2022-12-01T07:04:06.596Z,81.74
2022-12-01T07:04:53.268Z,81.48
2022-12-01T07:05:40.190Z,81.59
2022-12-01T07:06:26.766Z,81.65
2022-12-01T07:07:13.718Z,82.06
2022-12-01T07:08:01.030Z,82.00
2022-12-01T07:08:47.826Z,82.30
2022-12-01T07:09:34.820Z,82.22
2022-12-01T07:10:21.663Z,82.30
2022-12-01T07:11:12.642Z,81.79
2022-12-01T07:11:59.372Z,81.66
2022-12-01T07:12:46.133Z,81.65
2022-12-01T07:13:34.205Z,81.83
2022-12-01T07:14:24.311Z,81.80
2022-12-01T07:15:11.013Z,82.13
2022-12-01T07:15:58.494Z,82.28
2022-12-01T07:16:45.029Z,82.08
2022-12-01T07:17:31.685Z,82.02
2022-12-01T07:18:18.548Z,82.29
2022-12-01T07:19:05.270Z,81.86
2022-12-01T07:19:52.246Z,81.64
2022-12-01T07:20:41.196Z,82.06
2022-12-01T07:21:30.195Z,82.03
2022-12-01T07:22:16.961Z,82.14
2022-12-01T07:23:03.961Z,82.53
2022-12-01T07:23:50.953Z,82.53
2022-12-01T07:24:37.923Z,82.60
2022-12-01T07:25:24.601Z,82.39
2022-12-01T07:26:14.468Z,82.73
2022-12-01T07:27:01.063Z,82.33
2022-12-01T07:27:47.804Z,82.40
2022-12-01T07:28:34.720Z,82.30
2022-12-01T07:29:21.177Z,82.60
2022-12-01T07:30:08.519Z,82.60
2022-12-01T07:31:01.793Z,82.87
2022-12-01T07:31:48.355Z,82.83
2022-12-01T07:32:35.024Z,82.91
2022-12-01T07:33:21.671Z,82.94
2022-12-01T07:34:12.095Z,82.90
2022-12-01T07:34:58.650Z,82.58
2022-12-01T07:35:45.618Z,82.20
2022-12-01T07:36:33.021Z,82.49
2022-12-01T07:37:19.855Z,82.39
2022-12-01T07:38:06.832Z,82.41
2022-12-01T07:38:53.566Z,82.62
2022-12-01T07:39:40.317Z,82.77
2022-12-01T07:40:27.218Z,82.89
2022-12-01T07:41:23.368Z,82.72
2022-12-01T07:42:17.208Z,82.94
2022-12-01T07:43:04.038Z,82.76
2022-12-01T07:45:53.947Z,82.74
2022-12-01T07:47:05.739Z,82.81
2022-12-01T07:56:10.989Z,82.30
2022-12-01T08:18:35.871Z,81.81
2022-12-01T08:19:22.446Z,81.91
2022-12-01T08:20:09.424Z,81.69
2022-12-01T08:20:58.788Z,81.78
2022-12-01T08:21:45.443Z,81.82
2022-12-01T08:22:32.524Z,81.89
2022-12-01T08:23:19.274Z,82.21
2022-12-01T08:24:06.490Z,81.66
2022-12-01T08:24:53.077Z,82.04
2022-12-01T08:25:39.649Z,82.41
2022-12-01T08:26:27.570Z,82.50
2022-12-01T08:27:14.410Z,82.22
2022-12-01T08:28:01.583Z,81.78
2022-12-01T08:28:48.987Z,82.69
2022-12-01T08:29:35.970Z,81.99
2022-12-01T08:30:22.738Z,82.38
2022-12-01T08:31:22.901Z,82.49
2022-12-01T08:32:09.586Z,82.34
2022-12-01T08:32:57.634Z,82.19
2022-12-01T08:33:45.620Z,81.65
2022-12-01T08:34:35.638Z,82.02
2022-12-01T08:35:24.156Z,82.19
2022-12-01T08:36:10.902Z,82.29
2022-12-01T08:36:57.569Z,81.91
2022-12-01T08:37:44.024Z,81.63
2022-12-01T08:38:31.223Z,82.07
2022-12-01T08:39:17.679Z,81.48
2022-12-01T08:40:04.877Z,81.73
2022-12-01T08:40:51.327Z,81.10
2022-12-01T08:41:37.980Z,81.27
2022-12-01T08:42:24.627Z,81.28
2022-12-01T08:43:28.290Z,81.57
2022-12-01T08:44:18.393Z,81.52
2022-12-01T08:45:05.605Z,81.35
2022-12-01T08:45:52.120Z,81.46
2022-12-01T08:46:38.779Z,82.07
2022-12-01T08:47:28.883Z,82.10
2022-12-01T08:48:15.567Z,82.36
2022-12-01T08:49:04.496Z,82.27
2022-12-01T08:49:51.379Z,82.09
2022-12-01T08:50:37.995Z,82.38
2022-12-01T08:51:26.370Z,81.56
2022-12-01T08:52:12.844Z,81.58
2022-12-01T08:52:59.314Z,81.33
2022-12-01T08:53:48.844Z,81.45
2022-12-01T08:54:35.518Z,81.55
2022-12-01T08:55:22.610Z,81.61
2022-12-01T08:56:20.653Z,80.46
2022-12-01T08:57:07.381Z,81.07
2022-12-01T08:57:54.025Z,80.86
2022-12-01T08:58:40.660Z,80.29
2022-12-01T08:59:27.168Z,79.20
2022-12-01T09:00:14.219Z,79.29
2022-12-01T09:01:03.252Z,79.56
2022-12-01T09:01:53.819Z,79.66
2022-12-01T09:02:40.378Z,79.57
2022-12-01T09:03:26.874Z,79.59
2022-12-01T09:04:13.537Z,79.05
2022-12-01T09:05:01.719Z,79.52
2022-12-01T09:05:48.398Z,79.46
2022-12-01T09:06:40.315Z,79.46
2022-12-01T09:07:27.241Z,80.24
2022-12-01T09:08:31.955Z,81.12
2022-12-01T09:09:22.802Z,80.37
2022-12-01T09:10:10.079Z,80.11
2022-12-01T09:10:57.697Z,80.62
2022-12-01T09:11:46.139Z,80.83
2022-12-01T09:12:33.002Z,80.77
2022-12-01T09:13:19.790Z,80.45
2022-12-01T09:14:06.379Z,80.35
2022-12-01T09:14:53.090Z,80.66
2022-12-01T09:15:42.856Z,79.18
2022-12-01T09:16:46.081Z,79.22
2022-12-01T09:17:32.649Z,78.95
2022-12-01T09:18:19.222Z,78.71
2022-12-01T09:19:06.036Z,79.48
2022-12-01T09:19:52.762Z,79.33
2022-12-01T09:20:39.530Z,79.43
2022-12-01T09:21:30.751Z,79.09
2022-12-01T09:22:17.373Z,79.53
2022-12-01T09:23:03.861Z,79.31
2022-12-01T09:23:50.900Z,79.11
2022-12-01T09:24:38.001Z,78.89
2022-12-01T09:25:25.735Z,79.40
2022-12-01T09:26:18.028Z,79.86
2022-12-01T09:27:05.674Z,79.57
2022-12-01T09:27:52.130Z,79.63
2022-12-01T09:28:39.064Z,78.82
2022-12-01T09:29:26.083Z,78.85
2022-12-01T09:30:12.800Z,78.94
2022-12-01T09:31:07.839Z,78.72
2022-12-01T09:31:59.376Z,78.86
2022-12-01T09:32:45.812Z,78.86
2022-12-01T09:33:32.497Z,78.81
2022-12-01T09:34:20.296Z,78.81
2022-12-01T09:35:06.833Z,79.27
2022-12-01T09:35:53.240Z,79.49
2022-12-01T09:36:40.007Z,78.82
2022-12-01T09:37:26.431Z,78.95
2022-12-01T09:38:12.898Z,78.26
2022-12-01T09:39:00.546Z,78.43
2022-12-01T09:39:47.110Z,78.33
2022-12-01T09:40:40.480Z,78.25
2022-12-01T09:41:30.415Z,78.63
2022-12-01T09:42:18.520Z,78.91
2022-12-01T09:43:16.290Z,79.24
2022-12-01T09:44:20.602Z,79.16
2022-12-01T09:45:11.503Z,78.44
2022-12-01T09:46:05.956Z,78.51
2022-12-01T09:47:04.566Z,78.92
2022-12-01T09:47:55.964Z,79.22
2022-12-01T09:48:45.979Z,79.18
2022-12-01T09:49:38.356Z,78.90
2022-12-01T09:50:27.353Z,79.04
2022-12-01T09:51:15.768Z,78.01
2022-12-01T09:52:02.577Z,78.77
2022-12-01T09:53:09.585Z,78.64
2022-12-01T09:53:59.411Z,78.64
2022-12-01T09:54:48.766Z,78.60
2022-12-01T09:55:36.359Z,78.34
2022-12-01T09:56:29.636Z,77.84
2022-12-01T09:57:31.451Z,77.72
2022-12-01T09:58:22.981Z,77.67
2022-12-01T09:59:22.330Z,78.43
2022-12-01T10:00:15.481Z,77.73
2022-12-01T10:01:02.076Z,77.69
2022-12-01T10:01:56.276Z,77.79
2022-12-01T10:02:52.262Z,77.58
2022-12-01T10:03:48.285Z,77.95
2022-12-01T10:04:40.952Z,77.52
2022-12-01T10:06:10.260Z,77.96
2022-12-01T10:06:59.244Z,78.74
2022-12-01T10:07:59.935Z,78.99
2022-12-01T10:09:13.165Z,78.48
2022-12-01T10:10:06.101Z,79.00
2022-12-01T10:10:58.673Z,79.15
2022-12-01T10:11:49.494Z,78.99
2022-12-01T10:12:36.668Z,78.63
2022-12-01T10:13:26.447Z,78.89
2022-12-01T10:14:20.461Z,79.22
2022-12-01T10:15:17.878Z,78.82
2022-12-01T10:16:15.022Z,78.83
2022-12-01T10:17:07.805Z,78.00
2022-12-01T10:18:10.731Z,78.53
2022-12-01T10:19:09.865Z,78.41
2022-12-01T10:20:16.750Z,78.24
2022-12-01T10:21:27.667Z,78.75
2022-12-01T10:22:28.878Z,78.37
2022-12-01T10:23:36.938Z,77.30
2022-12-01T10:24:45.517Z,77.56
2022-12-01T10:26:00.336Z,78.14
2022-12-01T10:27:01.273Z,78.08
2022-12-01T10:28:06.130Z,77.75
2022-12-01T10:29:21.419Z,79.01
2022-12-01T10:30:10.643Z,79.05
2022-12-01T10:31:19.288Z,77.23
2022-12-01T10:32:22.475Z,76.72
2022-12-01T10:33:28.319Z,78.38
2022-12-01T10:34:20.631Z,78.67
2022-12-01T10:35:12.511Z,77.40
2022-12-01T10:35:59.046Z,77.72
2022-12-01T10:36:46.863Z,78.27
2022-12-01T10:37:33.579Z,78.07
2022-12-01T10:38:35.557Z,76.84
2022-12-01T10:39:36.844Z,77.11
2022-12-01T10:40:26.879Z,77.70
2022-12-01T10:41:18.786Z,78.41
2022-12-01T10:42:18.942Z,76.82
2022-12-01T10:43:05.363Z,77.37
2022-12-01T10:43:59.464Z,77.67
2022-12-01T10:44:46.645Z,76.79
2022-12-01T10:45:40.443Z,75.93
2022-12-01T10:46:45.629Z,76.25
2022-12-01T10:47:32.706Z,76.04
2022-12-01T10:48:21.938Z,76.32
2022-12-01T10:49:12.284Z,76.33
2022-12-01T10:49:58.996Z,76.81
2022-12-01T10:50:52.164Z,76.38
2022-12-01T10:51:54.806Z,76.53
2022-12-01T10:52:42.019Z,76.62
2022-12-01T10:53:33.658Z,75.98
2022-12-01T10:54:22.323Z,76.62
2022-12-01T10:55:26.455Z,76.23
2022-12-01T10:56:18.215Z,76.31
2022-12-01T10:57:15.114Z,75.36
2022-12-01T10:58:13.534Z,75.30
2022-12-01T10:59:19.255Z,75.22
2022-12-01T11:00:09.127Z,74.15
2022-12-01T11:01:03.531Z,74.41
2022-12-01T11:01:50.818Z,74.84
2022-12-01T11:02:38.101Z,74.88
2022-12-01T11:03:30.164Z,76.18
2022-12-01T11:04:22.769Z,75.83
2022-12-01T11:05:32.114Z,75.22
2022-12-01T11:06:23.996Z,73.87
2022-12-01T11:07:42.932Z,74.04
2022-12-01T11:08:55.087Z,76.12
2022-12-01T11:09:42.120Z,74.33
2022-12-01T11:10:37.550Z,73.87
2022-12-01T11:11:40.002Z,75.64
2022-12-01T11:12:26.641Z,75.47
2022-12-01T11:13:28.681Z,73.55
2022-12-01T11:14:22.884Z,74.21
2022-12-01T11:15:28.041Z,74.32
2022-12-01T11:16:35.529Z,75.23
2022-12-01T11:17:31.882Z,75.26
2022-12-01T11:18:36.121Z,75.45
2022-12-01T11:19:34.878Z,73.79
2022-12-01T11:20:49.794Z,74.38
2022-12-01T11:21:47.437Z,75.01
2022-12-01T11:22:34.259Z,75.39
2022-12-01T11:23:21.054Z,75.61
2022-12-01T11:24:28.302Z,74.87
2022-12-01T11:25:22.227Z,74.47
2022-12-01T11:26:17.897Z,72.63
2022-12-01T11:27:15.673Z,73.69
2022-12-01T11:28:04.472Z,73.48
2022-12-01T11:29:04.789Z,73.11
2022-12-01T11:29:57.248Z,73.79
2022-12-01T11:30:44.198Z,72.96
2022-12-01T11:31:41.932Z,74.64